Terminal Aerodrome Forecast
Issued by NWS Goodland, KS

Home | Current Version | Previous Version | Text Only | Print | Product List | Glossary On
Versions: 1 2 3 4 5 6 7 8 9 10 11 12 13 14 15 16 17 18 19 20 21 22 23 24 25
000
FTUS43 KGLD 281720
TAFGLD
TAF
KGLD 281720Z 2818/2918 18010G16KT P6SM BKN025
      TEMPO 2818/2819 SCT015 SCT025
     FM282000 16012KT P6SM VCTS BKN050CB
      TEMPO 2820/2824 VRB25G35KT 3SM +TSRA BR
     FM290300 33011KT P6SM SCT004 BKN200
     FM291100 36012KT P6SM SCT025 SCT250=

USA.gov is the U.S. government's official web portal to all federal, state and local government web resources and services.